Briefing drone pour Val-de-reuil

Rechercher une autre localisation

Conditions de vol :


Nous sommes le : Vendredi 22 octobre 2021
Il est 00:14 UTC (02:14 LT)

Lever de soleil : 06:01 UTC (08:01 LT)
Coucher de soleil : 17:17 UTC (19:17 LT)

Météo

L'essentiel des conditions de vol

VIGILANCE MÉTÉO FRANCE - Eure (27)
Pas de vigilances particulieres
CARTE TEMSI
CARTES DES FRONTS
METAR de LFOP
LFOP 220000Z AUTO 26005KT CAVOK 03/02 Q1020

Date d'émission: 22/10/2021
Heure d'émission: 00:00 UTC
Vent: 260° pour 5 KT (9 km/h)
Visibilité horizontale: > 10 km
Plafond : Plafond et visibilité OK (CAVOK)
Température: 3 °C
Point de rosée: 2 °C
Humidité: 93%
Pression (QNH): 1020 hPa
TAF de LFOP
LFOP 212006Z 2120/2218 CNL

Conditions prévues :

Heure d'émission : Bulletin éffectué le 21 à 20:00 UTC
Prévision : Valide du 21 a 20:00 UTC au 22 a 18:00 UTC
Nuages : à 0ft (0 m)
WEBCAM POUR VAL-DE-REUIL

Réglementation

Voler en sécurité

CARTES AERONAUTIQUE 1/500.000
CARTES VAC (LFOP)
SUP AIP




Chargement des AIP...
NOTAM (VAL-DE-REUIL + Terrain à proximité / FIR )




Chargement des NOTAMS...
CONTACT PREFECTURE 27


Avertissement : Les données mises à disposition sont indicatives. Oxygène Drone ne pourra être tenu responsable de dégâts causés aux biens et aux personnes.